createdAt,value
2023-09-27T00:02:13.695Z,6.85
2023-09-27T00:04:40.923Z,7.97
2023-09-27T00:07:09.987Z,7.07
2023-09-27T00:09:37.506Z,6.97
2023-09-27T00:12:06.079Z,6.63
2023-09-27T00:14:32.964Z,7.55
2023-09-27T00:16:59.890Z,7.95
2023-09-27T00:19:26.837Z,7.75
2023-09-27T00:21:53.828Z,8.25
2023-09-27T00:24:22.231Z,7.53
2023-09-27T00:26:49.102Z,6.93
2023-09-27T00:29:15.955Z,6.43
2023-09-27T00:31:42.940Z,6.28
2023-09-27T00:34:09.910Z,9.15
2023-09-27T00:36:37.116Z,7.53
2023-09-27T00:39:04.487Z,7.65
2023-09-27T00:41:32.770Z,6.90
2023-09-27T00:43:59.912Z,10.52
2023-09-27T00:46:26.803Z,9.45
2023-09-27T00:48:54.092Z,7.30
2023-09-27T00:51:21.096Z,7.07
2023-09-27T00:53:50.778Z,6.57
2023-09-27T00:56:18.070Z,7.70
2023-09-27T00:58:46.473Z,6.15
2023-09-27T01:01:14.315Z,7.20
2023-09-27T01:03:43.287Z,7.07
2023-09-27T01:06:12.936Z,7.82
2023-09-27T01:08:39.935Z,6.45
2023-09-27T01:11:06.931Z,7.47
2023-09-27T01:13:34.176Z,7.90
2023-09-27T01:16:03.349Z,6.00
2023-09-27T01:18:30.345Z,6.57
2023-09-27T01:20:57.279Z,6.57
2023-09-27T01:23:26.240Z,6.85
2023-09-27T01:25:59.971Z,6.55
2023-09-27T01:28:27.333Z,7.57
2023-09-27T01:30:54.520Z,8.35
2023-09-27T01:33:21.468Z,7.60
2023-09-27T01:35:49.215Z,7.50
2023-09-27T01:38:16.392Z,8.00
2023-09-27T01:40:46.166Z,7.15
2023-09-27T01:43:14.026Z,6.78
2023-09-27T01:45:40.907Z,7.60
2023-09-27T01:48:07.959Z,7.70
2023-09-27T01:50:36.174Z,8.27
2023-09-27T01:53:04.497Z,7.82
2023-09-27T01:55:32.573Z,8.02
2023-09-27T01:58:02.424Z,6.43
2023-09-27T02:00:29.434Z,7.30
2023-09-27T02:02:57.820Z,8.95
2023-09-27T02:05:25.694Z,9.07
2023-09-27T02:07:53.520Z,8.45
2023-09-27T02:10:20.441Z,8.38
2023-09-27T02:12:47.511Z,8.98
2023-09-27T02:15:17.000Z,10.70
2023-09-27T02:17:44.825Z,10.85
2023-09-27T02:20:14.372Z,8.50
2023-09-27T02:22:43.023Z,8.07
2023-09-27T02:25:12.813Z,8.80
2023-09-27T02:27:40.538Z,8.63
2023-09-27T02:30:12.785Z,8.38
2023-09-27T02:32:42.512Z,9.43
2023-09-27T02:35:10.493Z,9.27
2023-09-27T02:37:38.273Z,8.00
2023-09-27T02:40:13.118Z,8.48
2023-09-27T02:42:41.581Z,9.38
2023-09-27T02:45:10.361Z,8.63
2023-09-27T02:47:37.518Z,7.97
2023-09-27T02:50:09.719Z,8.90
2023-09-27T02:52:36.606Z,9.38
2023-09-27T02:55:03.881Z,9.38
2023-09-27T02:57:30.682Z,8.93
2023-09-27T02:59:57.597Z,8.05
2023-09-27T03:02:24.947Z,10.05
2023-09-27T03:04:52.222Z,8.35
2023-09-27T03:07:20.395Z,8.73
2023-09-27T03:09:48.542Z,8.32
2023-09-27T03:12:16.921Z,9.38
2023-09-27T03:14:43.812Z,8.05
2023-09-27T03:17:11.299Z,8.73
2023-09-27T03:19:38.601Z,9.52
2023-09-27T03:22:05.614Z,10.07
2023-09-27T03:24:35.545Z,8.15
2023-09-27T03:27:04.301Z,8.05
2023-09-27T03:29:31.952Z,7.78
2023-09-27T03:31:59.113Z,8.52
2023-09-27T03:34:26.473Z,8.45
2023-09-27T03:36:59.352Z,8.00
2023-09-27T03:39:30.143Z,7.78
2023-09-27T03:41:58.403Z,9.98
2023-09-27T03:44:25.396Z,8.02
2023-09-27T03:46:52.626Z,9.00
2023-09-27T03:49:19.464Z,8.90
2023-09-27T03:51:46.310Z,8.23
2023-09-27T03:54:18.436Z,8.27
2023-09-27T03:56:48.027Z,8.82
2023-09-27T03:59:16.410Z,7.80
2023-09-27T04:01:43.540Z,8.52
2023-09-27T04:04:10.606Z,11.07
2023-09-27T04:06:37.611Z,9.73
2023-09-27T04:09:05.426Z,7.93
2023-09-27T04:11:32.394Z,8.18
2023-09-27T04:13:59.220Z,9.15
2023-09-27T04:16:31.709Z,8.00
2023-09-27T04:18:58.869Z,6.97
2023-09-27T04:21:26.329Z,8.20
2023-09-27T04:24:00.468Z,7.65
2023-09-27T04:26:28.022Z,7.72
2023-09-27T04:28:55.247Z,7.18
2023-09-27T04:31:22.553Z,7.85
2023-09-27T04:33:51.249Z,7.20
2023-09-27T04:36:19.310Z,8.27
2023-09-27T04:38:47.499Z,9.75
2023-09-27T04:41:16.004Z,8.30
2023-09-27T04:43:46.204Z,8.20
2023-09-27T04:46:14.083Z,8.18
2023-09-27T04:48:40.930Z,7.68
2023-09-27T04:51:09.911Z,8.32
2023-09-27T04:53:38.717Z,8.70
2023-09-27T04:56:07.379Z,7.75
2023-09-27T04:58:35.611Z,8.25
2023-09-27T05:01:03.775Z,7.82
2023-09-27T05:03:30.812Z,8.90
2023-09-27T05:05:57.873Z,8.52
2023-09-27T05:08:27.576Z,7.18
2023-09-27T05:10:56.137Z,8.25
2023-09-27T05:13:23.014Z,8.68
2023-09-27T05:15:50.523Z,7.47
2023-09-27T05:18:17.364Z,7.63
2023-09-27T05:20:47.544Z,8.10
2023-09-27T05:23:14.549Z,7.88
2023-09-27T05:25:42.933Z,7.10
2023-09-27T05:28:10.413Z,8.68
2023-09-27T05:30:37.544Z,9.52
2023-09-27T05:33:07.641Z,9.77
2023-09-27T05:35:34.960Z,9.02
2023-09-27T05:38:01.872Z,10.95
2023-09-27T05:40:29.084Z,9.70
2023-09-27T05:42:58.602Z,8.30
2023-09-27T05:45:28.397Z,10.48
2023-09-27T05:47:56.308Z,9.15
2023-09-27T05:50:24.365Z,10.32
2023-09-27T05:52:51.155Z,10.27
2023-09-27T05:55:18.100Z,8.32
2023-09-27T05:57:45.750Z,9.38
2023-09-27T06:00:28.235Z,8.60
2023-09-27T06:02:55.774Z,10.05
2023-09-27T06:05:23.021Z,10.13
2023-09-27T06:07:50.334Z,9.20
2023-09-27T06:10:17.816Z,10.32
2023-09-27T06:12:44.720Z,8.02
2023-09-27T06:15:13.610Z,8.88
2023-09-27T06:17:43.489Z,11.40
2023-09-27T06:20:21.259Z,9.85
2023-09-27T06:22:53.741Z,8.88
2023-09-27T06:25:24.865Z,9.70
2023-09-27T06:27:52.910Z,10.05
2023-09-27T06:30:21.730Z,10.73
2023-09-27T06:32:50.145Z,9.07
2023-09-27T06:35:17.692Z,8.63
2023-09-27T06:37:50.295Z,8.57
2023-09-27T06:40:18.588Z,9.13
2023-09-27T06:42:46.126Z,7.97
2023-09-27T06:45:14.419Z,10.18
2023-09-27T06:47:42.394Z,9.40
2023-09-27T06:50:12.178Z,8.55
2023-09-27T06:52:40.959Z,10.52
2023-09-27T06:55:17.434Z,8.32
2023-09-27T06:57:45.857Z,9.82
2023-09-27T07:00:33.900Z,8.88
2023-09-27T07:03:00.789Z,10.43
2023-09-27T07:05:29.035Z,8.90
2023-09-27T07:07:56.058Z,9.02
2023-09-27T07:10:24.683Z,9.63
2023-09-27T07:12:51.552Z,11.25
2023-09-27T07:15:18.412Z,11.15
2023-09-27T07:17:46.890Z,9.55
2023-09-27T07:20:28.443Z,7.78
2023-09-27T07:22:58.230Z,10.52
2023-09-27T07:25:33.627Z,10.05
2023-09-27T07:28:02.865Z,10.32
2023-09-27T07:30:29.582Z,10.45
2023-09-27T07:32:58.292Z,9.82
2023-09-27T07:35:28.604Z,9.65
2023-09-27T07:37:56.981Z,8.77
2023-09-27T07:40:24.396Z,9.57
2023-09-27T07:42:52.285Z,9.43
2023-09-27T07:45:27.523Z,13.40
2023-09-27T07:47:55.789Z,11.27
2023-09-27T07:50:27.939Z,11.95
2023-09-27T07:52:55.331Z,9.32
2023-09-27T07:55:23.917Z,12.52
2023-09-27T07:57:54.047Z,11.38
2023-09-27T08:00:27.094Z,8.80
2023-09-27T08:02:55.671Z,11.73
2023-09-27T08:05:23.615Z,11.07
2023-09-27T08:07:52.051Z,10.48
2023-09-27T08:10:21.830Z,9.65
2023-09-27T08:12:50.390Z,9.25
2023-09-27T08:15:19.504Z,9.73
2023-09-27T08:17:48.773Z,10.48
2023-09-27T08:20:16.281Z,8.48
2023-09-27T08:22:43.354Z,8.93
2023-09-27T08:25:16.474Z,8.25
2023-09-27T08:27:44.293Z,10.68
2023-09-27T08:30:13.743Z,9.68
2023-09-27T08:32:42.221Z,8.18
2023-09-27T08:35:10.559Z,9.48
2023-09-27T08:37:37.781Z,8.13
2023-09-27T08:40:06.690Z,8.27
2023-09-27T08:42:35.219Z,8.70
2023-09-27T08:45:04.150Z,6.90
2023-09-27T08:47:33.804Z,8.02
2023-09-27T08:50:01.065Z,9.70
2023-09-27T08:52:29.358Z,8.68
2023-09-27T08:54:56.348Z,9.55
2023-09-27T08:57:27.331Z,9.15
2023-09-27T08:59:54.789Z,9.02
2023-09-27T09:02:25.517Z,8.75
2023-09-27T09:04:53.894Z,9.00
2023-09-27T09:07:20.732Z,9.13
2023-09-27T09:09:47.666Z,8.57
2023-09-27T09:12:14.854Z,10.02
2023-09-27T09:14:51.036Z,10.57
2023-09-27T09:17:20.377Z,7.95
2023-09-27T09:20:16.422Z,7.82
2023-09-27T09:22:45.239Z,7.57
2023-09-27T09:25:12.187Z,8.77
2023-09-27T09:27:39.453Z,8.02
2023-09-27T09:30:08.506Z,7.72
2023-09-27T09:32:36.436Z,8.05
2023-09-27T09:35:08.100Z,8.63
2023-09-27T09:37:36.464Z,5.88
2023-09-27T09:40:16.768Z,8.13
2023-09-27T09:42:44.309Z,7.38
2023-09-27T09:45:13.974Z,6.88
2023-09-27T09:47:43.175Z,6.40
2023-09-27T09:50:19.892Z,5.50
2023-09-27T09:52:58.931Z,7.90
2023-09-27T09:55:52.120Z,6.47
2023-09-27T09:58:26.213Z,5.45
2023-09-27T10:00:55.130Z,5.85
2023-09-27T10:03:23.693Z,6.53
2023-09-27T10:05:55.007Z,6.40
2023-09-27T10:08:23.154Z,7.13
2023-09-27T10:10:50.214Z,6.32
2023-09-27T10:13:19.472Z,5.20
2023-09-27T10:15:46.652Z,6.18
2023-09-27T10:18:34.859Z,5.97
2023-09-27T10:21:08.538Z,6.72
2023-09-27T10:24:00.227Z,7.00
2023-09-27T10:26:36.882Z,7.22
2023-09-27T10:29:15.388Z,5.75
2023-09-27T10:32:14.729Z,6.60
2023-09-27T10:34:42.347Z,5.35
2023-09-27T10:39:42.719Z,4.75
2023-09-27T10:42:10.152Z,4.50
2023-09-27T10:44:44.987Z,6.70
2023-09-27T10:47:13.309Z,4.85
2023-09-27T10:49:40.211Z,6.15
2023-09-27T10:52:17.930Z,6.13
2023-09-27T10:54:45.311Z,5.60
2023-09-27T10:57:13.328Z,6.63
2023-09-27T10:59:40.667Z,4.93
2023-09-27T11:02:08.039Z,4.85
2023-09-27T11:04:37.423Z,6.43
2023-09-27T11:07:05.340Z,4.82
2023-09-27T11:09:43.104Z,5.55
2023-09-27T11:12:09.894Z,6.15
2023-09-27T11:14:36.745Z,6.47
2023-09-27T11:17:16.369Z,4.18
2023-09-27T11:19:44.888Z,5.78
2023-09-27T11:22:12.376Z,5.75
2023-09-27T11:24:41.852Z,5.72
2023-09-27T11:27:09.359Z,4.55
2023-09-27T11:29:36.882Z,4.65
2023-09-27T11:32:04.286Z,6.35
2023-09-27T11:34:31.661Z,4.93
2023-09-27T11:36:58.975Z,5.65
2023-09-27T11:39:28.714Z,5.75
2023-09-27T11:42:01.935Z,4.55
2023-09-27T11:44:29.336Z,4.00
2023-09-27T11:47:06.798Z,3.33
2023-09-27T11:49:35.044Z,4.38
2023-09-27T11:52:03.035Z,4.47
2023-09-27T11:54:30.580Z,4.82
2023-09-27T11:56:59.843Z,4.95
2023-09-27T11:59:26.777Z,6.00
2023-09-27T12:01:53.640Z,5.75
2023-09-27T12:04:20.586Z,4.97
2023-09-27T12:06:48.520Z,5.55
2023-09-27T12:09:16.098Z,7.43
2023-09-27T12:11:42.971Z,4.47
2023-09-27T12:14:11.346Z,4.22
2023-09-27T12:16:38.262Z,4.30
2023-09-27T12:19:05.679Z,6.07
2023-09-27T12:21:36.058Z,4.20
2023-09-27T12:24:03.772Z,5.55
2023-09-27T12:26:31.999Z,5.95
2023-09-27T12:28:59.828Z,4.63
2023-09-27T12:31:28.469Z,4.32
2023-09-27T12:33:55.954Z,4.88
2023-09-27T12:36:23.764Z,4.10
2023-09-27T12:38:50.925Z,5.90
2023-09-27T12:41:19.059Z,5.18
2023-09-27T12:43:46.938Z,4.45
2023-09-27T12:46:14.900Z,7.40
2023-09-27T12:48:43.246Z,5.05
2023-09-27T12:51:10.639Z,5.25
2023-09-27T12:53:37.550Z,4.25
2023-09-27T12:56:05.384Z,4.72
2023-09-27T12:58:32.838Z,4.78
2023-09-27T13:01:02.565Z,4.20
2023-09-27T13:03:30.909Z,5.65
2023-09-27T13:05:59.518Z,4.60
2023-09-27T13:08:29.855Z,6.60
2023-09-27T13:10:56.973Z,5.80
2023-09-27T13:13:24.374Z,4.93
2023-09-27T13:15:51.339Z,5.70
2023-09-27T13:18:18.561Z,5.18
2023-09-27T13:20:46.141Z,6.90
2023-09-27T13:23:14.522Z,6.50
2023-09-27T13:25:41.401Z,6.28
2023-09-27T13:28:08.835Z,6.60
2023-09-27T13:30:36.779Z,5.03
2023-09-27T13:33:05.175Z,6.45
2023-09-27T13:35:35.917Z,5.28
2023-09-27T13:38:05.558Z,4.88
2023-09-27T13:40:34.926Z,4.93
2023-09-27T13:43:01.907Z,5.38
2023-09-27T13:45:29.514Z,7.07
2023-09-27T13:47:56.639Z,4.95
2023-09-27T13:50:24.088Z,4.47
2023-09-27T13:52:51.013Z,4.90
2023-09-27T13:55:18.398Z,5.90
2023-09-27T13:57:49.479Z,4.22
2023-09-27T14:00:17.203Z,4.75
2023-09-27T14:02:46.224Z,5.75
2023-09-27T14:05:14.526Z,6.20
2023-09-27T14:07:43.749Z,6.50
2023-09-27T14:10:11.317Z,5.47
2023-09-27T14:12:38.306Z,6.03
2023-09-27T14:15:08.241Z,5.05
2023-09-27T14:17:36.139Z,5.93
2023-09-27T14:20:03.605Z,4.18
2023-09-27T14:22:30.965Z,5.43
2023-09-27T14:24:58.492Z,5.85
2023-09-27T14:27:29.865Z,5.30
2023-09-27T14:29:57.073Z,3.67
2023-09-27T14:32:28.688Z,5.22
2023-09-27T14:34:57.947Z,4.72
2023-09-27T14:37:25.929Z,5.20
2023-09-27T14:39:53.297Z,4.32
2023-09-27T14:42:20.511Z,4.28
2023-09-27T14:44:47.421Z,4.57
2023-09-27T14:47:14.642Z,3.92
2023-09-27T14:49:42.891Z,5.40
2023-09-27T14:52:10.004Z,4.55
2023-09-27T14:54:36.929Z,5.35
2023-09-27T14:57:03.975Z,5.10
2023-09-27T14:59:30.865Z,4.50
2023-09-27T15:01:59.287Z,5.43
2023-09-27T15:04:26.967Z,5.47
2023-09-27T15:06:56.439Z,4.68
2023-09-27T15:09:23.538Z,4.82
2023-09-27T15:11:50.784Z,4.93
2023-09-27T15:14:17.954Z,3.90
2023-09-27T15:16:44.996Z,6.38
2023-09-27T15:19:12.949Z,5.15
2023-09-27T15:21:40.018Z,4.60
2023-09-27T15:24:10.893Z,6.57
2023-09-27T15:26:37.987Z,4.03
2023-09-27T15:29:04.993Z,4.55
2023-09-27T15:31:32.589Z,4.15
2023-09-27T15:33:59.482Z,6.20
2023-09-27T15:36:30.047Z,5.03
2023-09-27T15:38:57.355Z,4.75
2023-09-27T15:41:27.978Z,6.07
2023-09-27T15:43:55.942Z,5.60
2023-09-27T15:46:22.949Z,5.30
2023-09-27T15:48:50.561Z,5.88
2023-09-27T15:51:20.322Z,4.03
2023-09-27T15:53:47.481Z,5.40
2023-09-27T15:56:14.688Z,3.95
2023-09-27T15:58:42.984Z,3.97
2023-09-27T16:01:09.938Z,5.35
2023-09-27T16:03:36.980Z,6.85
2023-09-27T16:06:05.584Z,4.50
2023-09-27T16:08:33.144Z,5.50
2023-09-27T16:11:00.932Z,7.57
2023-09-27T16:13:29.321Z,5.03
2023-09-27T16:15:57.666Z,5.20
2023-09-27T16:18:24.529Z,5.18
2023-09-27T16:20:51.493Z,4.10
2023-09-27T16:23:18.457Z,5.20
2023-09-27T16:25:46.508Z,5.53
2023-09-27T16:28:13.670Z,6.50
2023-09-27T16:30:41.122Z,6.00
2023-09-27T16:33:11.134Z,5.05
2023-09-27T16:35:38.960Z,5.15
2023-09-27T16:38:07.097Z,5.07
2023-09-27T16:40:34.109Z,5.07
2023-09-27T16:43:01.614Z,4.97
2023-09-27T16:45:28.847Z,5.78
2023-09-27T16:47:55.752Z,5.47
2023-09-27T16:50:24.189Z,4.90
2023-09-27T16:52:51.093Z,6.03
2023-09-27T16:55:17.929Z,4.43
2023-09-27T16:57:44.895Z,4.57
2023-09-27T17:00:12.939Z,6.57
2023-09-27T17:02:41.963Z,6.05
2023-09-27T17:05:09.208Z,5.15
2023-09-27T17:07:37.730Z,5.88
2023-09-27T17:10:06.315Z,4.35
2023-09-27T17:12:34.454Z,5.50
2023-09-27T17:15:01.508Z,6.18
2023-09-27T17:17:29.696Z,6.30
2023-09-27T17:19:56.791Z,7.20
2023-09-27T17:22:23.714Z,6.57
2023-09-27T17:24:53.148Z,5.40
2023-09-27T17:27:20.259Z,5.40
2023-09-27T17:29:47.194Z,5.88
2023-09-27T17:32:14.110Z,7.00
2023-09-27T17:34:41.170Z,5.65
2023-09-27T17:37:08.794Z,6.82
2023-09-27T17:39:36.616Z,5.35
2023-09-27T17:42:07.303Z,4.97
2023-09-27T17:44:34.260Z,5.35
2023-09-27T17:47:01.522Z,5.00
2023-09-27T17:49:29.859Z,7.07
2023-09-27T17:51:57.033Z,5.72
2023-09-27T17:54:24.177Z,6.65
2023-09-27T17:56:54.152Z,6.53
2023-09-27T17:59:22.705Z,6.40
2023-09-27T18:01:49.877Z,5.45
2023-09-27T18:04:17.272Z,5.80
2023-09-27T18:06:44.191Z,5.95
2023-09-27T18:09:11.658Z,5.93
2023-09-27T18:11:38.564Z,6.18
2023-09-27T18:14:06.166Z,6.57
2023-09-27T18:16:34.558Z,9.68
2023-09-27T18:19:01.685Z,6.75
2023-09-27T18:21:29.394Z,7.07
2023-09-27T18:24:15.004Z,5.05
2023-09-27T18:26:42.035Z,7.40
2023-09-27T18:29:10.001Z,8.13
2023-09-27T18:31:40.446Z,6.55
2023-09-27T18:34:07.675Z,7.75
2023-09-27T18:36:34.934Z,6.80
2023-09-27T18:39:02.482Z,7.47
2023-09-27T18:41:29.368Z,8.15
2023-09-27T18:43:56.922Z,8.35
2023-09-27T18:46:24.332Z,5.80
2023-09-27T18:48:53.829Z,7.82
2023-09-27T18:51:21.841Z,7.63
2023-09-27T18:53:49.303Z,7.07
2023-09-27T18:56:16.248Z,7.28
2023-09-27T18:58:43.222Z,6.35
2023-09-27T19:01:10.186Z,8.68
2023-09-27T19:03:37.087Z,6.75
2023-09-27T19:06:06.093Z,7.10
2023-09-27T19:08:33.107Z,8.77
2023-09-27T19:11:01.553Z,7.78
2023-09-27T19:13:28.586Z,6.35
2023-09-27T19:16:03.152Z,6.18
2023-09-27T19:18:30.040Z,7.35
2023-09-27T19:20:57.022Z,6.93
2023-09-27T19:23:25.176Z,7.47
2023-09-27T19:25:52.122Z,9.93
2023-09-27T19:28:19.390Z,8.90
2023-09-27T19:30:46.409Z,7.85
2023-09-27T19:33:13.562Z,8.75
2023-09-27T19:35:41.897Z,7.18
2023-09-27T19:38:09.729Z,8.80
2023-09-27T19:40:39.008Z,7.85
2023-09-27T19:43:06.095Z,7.97
2023-09-27T19:45:33.126Z,8.13
2023-09-27T19:48:02.033Z,8.25
2023-09-27T19:50:29.350Z,7.60
2023-09-27T19:52:56.405Z,6.95
2023-09-27T19:55:23.220Z,7.18
2023-09-27T19:57:51.480Z,7.65
2023-09-27T20:00:19.482Z,11.10
2023-09-27T20:02:47.274Z,8.15
2023-09-27T20:05:14.459Z,8.65
2023-09-27T20:07:47.726Z,6.47
2023-09-27T20:10:15.878Z,8.65
2023-09-27T20:12:44.022Z,9.75
2023-09-27T20:15:16.180Z,8.82
2023-09-27T20:17:45.492Z,8.00
2023-09-27T20:20:12.743Z,7.47
2023-09-27T20:22:39.914Z,7.78
2023-09-27T20:25:11.592Z,7.90
2023-09-27T20:27:40.017Z,8.35
2023-09-27T20:30:33.310Z,7.28
2023-09-27T20:33:08.201Z,7.85
2023-09-27T20:35:56.148Z,8.07
2023-09-27T20:38:24.458Z,8.55
2023-09-27T20:40:51.493Z,8.65
2023-09-27T20:43:19.695Z,9.13
2023-09-27T20:45:46.526Z,6.95
2023-09-27T20:48:50.281Z,7.05
2023-09-27T20:51:27.911Z,7.40
2023-09-27T20:53:55.702Z,6.75
2023-09-27T20:57:32.959Z,9.15
2023-09-27T21:02:59.539Z,7.25
2023-09-27T21:05:29.306Z,6.55
2023-09-27T21:07:59.630Z,6.07
2023-09-27T21:10:28.152Z,8.10
2023-09-27T21:13:04.601Z,7.00
2023-09-27T21:15:34.075Z,7.05
2023-09-27T21:18:02.240Z,8.38
2023-09-27T21:20:30.573Z,8.07
2023-09-27T21:23:04.149Z,7.65
2023-09-27T21:25:33.364Z,6.45
2023-09-27T21:28:05.023Z,6.18
2023-09-27T21:30:47.625Z,5.93
2023-09-27T21:33:19.023Z,5.60
2023-09-27T21:35:53.754Z,6.78
2023-09-27T21:38:30.582Z,5.82
2023-09-27T21:41:04.291Z,6.03
2023-09-27T21:43:37.298Z,4.72
2023-09-27T21:46:21.493Z,5.25
2023-09-27T21:48:55.626Z,5.72
2023-09-27T21:51:27.762Z,4.25
2023-09-27T21:53:56.201Z,3.97
2023-09-27T21:56:23.171Z,4.57
2023-09-27T21:58:50.116Z,4.65
2023-09-27T22:01:17.055Z,4.13
2023-09-27T22:03:44.148Z,4.70
2023-09-27T22:06:11.768Z,3.97
2023-09-27T22:08:38.804Z,4.72
2023-09-27T22:11:07.323Z,4.95
2023-09-27T22:13:39.318Z,3.95
2023-09-27T22:16:11.334Z,4.65
2023-09-27T22:18:53.511Z,3.35
2023-09-27T22:21:28.315Z,4.57
2023-09-27T22:23:57.401Z,3.67
2023-09-27T22:26:26.466Z,4.50
2023-09-27T22:28:57.306Z,4.95
2023-09-27T22:31:27.961Z,3.70
2023-09-27T22:34:05.914Z,3.58
2023-09-27T22:36:32.874Z,3.38
2023-09-27T22:39:10.216Z,4.13
2023-09-27T22:41:40.996Z,3.40
2023-09-27T22:44:20.524Z,3.30
2023-09-27T22:46:48.181Z,3.35
2023-09-27T22:49:16.049Z,3.25
2023-09-27T22:51:46.388Z,3.42
2023-09-27T22:54:15.813Z,3.35
2023-09-27T22:56:44.462Z,5.05
2023-09-27T22:59:13.075Z,2.80
2023-09-27T23:01:41.611Z,4.13
2023-09-27T23:04:15.272Z,2.95
2023-09-27T23:06:46.472Z,3.22
2023-09-27T23:09:21.492Z,2.25
2023-09-27T23:11:57.057Z,4.13
2023-09-27T23:14:24.122Z,3.17
2023-09-27T23:17:11.807Z,3.42
2023-09-27T23:19:44.807Z,3.30
2023-09-27T23:25:34.334Z,3.60
2023-09-27T23:28:04.463Z,4.15
2023-09-27T23:30:31.761Z,3.22
2023-09-27T23:33:00.281Z,3.47
2023-09-27T23:35:31.336Z,3.85
2023-09-27T23:38:30.768Z,3.45
2023-09-27T23:41:02.091Z,3.90
2023-09-27T23:43:41.247Z,14.80
2023-09-27T23:46:15.178Z,5.20
2023-09-27T23:48:42.975Z,3.22
2023-09-27T23:51:09.846Z,3.17
2023-09-27T23:53:37.332Z,4.70
2023-09-27T23:56:07.973Z,2.67
2023-09-27T23:58:36.519Z,4.45
